In Rescue
 
Open Full Screen Window  High Contrast Mode
Wind Gusting 00 knots
06
February 24, 2020 5:54 PM EST
Present Weather: Light Snow
Weather Information
Wind Direction
  110 °
Wind Speed
  06 kt (7 mph)
Wind Gust
  00 kt (0 mph)
Altimeter
29.80 in
Visibility
2 1/2 SM
Temperature
06° C
43° F
Dewpoint
05° C
41° F
Humidity
93%
1hr Rain Fall
00.01 in.
24hr Rain Fall
00.10 in.
Sky Condition
Overcast @ 600 ft
IFR

METAR KI69 242254Z AUTO 11006KT 2 1/2SM -SN OVC006 06/05 A2980 RMK AO2 P0001 T00560054

FAA Disclaimer: The data displayed is for advisory purposes only and is not to be used for flight planning or operations.